Time;durP1;ratioP1;P1;durP2;ratioP2;P2;SDS_P1;SDS_P2;PMS_P1;PMS_P2;Temp;Humidity;BMP_temperature;BMP_pressure;BME280_temperature;BME280_humidity;BME280_pressure;Samples;Min_cycle;Max_cycle;Signal;HPM_P1;HPM_P2
2021/04/19 00:01:32;;;;;;;28.17;17.02;;;6.20;99.90;;;5.40;76.04;97750.94;5007513;28;20073;-66
2021/04/19 00:03:58;;;;;;;25.90;17.20;;;6.30;99.90;;;5.53;75.65;97745.56;5007438;28;20446;-65
2021/04/19 00:06:45;;;;;;;27.90;17.58;;;6.30;99.90;;;5.45;75.67;97737.97;5008777;28;20042;-66
2021/04/19 00:09:21;;;;;;;33.40;20.80;;;6.40;99.90;;;5.47;76.03;97738.81;5008750;28;20050;-66
2021/04/19 00:11:48;;;;;;;38.13;23.00;;;6.40;99.90;;;5.37;76.67;97737.31;5007931;28;20057;-66
2021/04/19 00:14:15;;;;;;;31.50;19.27;;;6.40;99.90;;;5.52;75.92;97742.16;5007600;28;20049;-66
2021/04/19 00:16:42;;;;;;;31.30;19.90;;;6.40;99.90;;;5.59;75.45;97737.75;5007929;28;20506;-66
2021/04/19 00:19:08;;;;;;;29.70;18.15;;;6.50;99.90;;;5.69;75.42;97740.97;5008456;28;20046;-65
2021/04/19 00:21:35;;;;;;;25.45;15.85;;;6.50;99.90;;;5.49;76.24;97734.47;5006549;28;20054;-65
2021/04/19 00:24:01;;;;;;;27.58;17.15;;;6.60;99.90;;;5.41;77.27;97732.06;5007982;28;20123;-66
2021/04/19 00:26:28;;;;;;;30.50;17.15;;;6.50;99.90;;;5.32;77.37;97737.38;5008316;28;20080;-66
2021/04/19 00:28:54;;;;;;;36.47;23.65;;;6.40;99.90;;;5.05;81.23;97735.34;4992176;28;20052;-65
2021/04/19 00:31:21;;;;;;;38.25;24.70;;;6.40;99.90;;;4.95;82.72;97734.63;4992829;28;20096;-65
2021/04/19 00:33:47;;;;;;;40.20;25.42;;;6.20;99.90;;;4.90;83.41;97732.13;5006630;28;20414;-65
2021/04/19 00:36:14;;;;;;;39.35;24.08;;;6.20;99.90;;;4.98;84.13;97732.03;5007345;28;20052;-65
2021/04/19 00:38:40;;;;;;;36.05;21.88;;;6.20;99.90;;;5.17;82.38;97723.06;5006921;28;20503;-65
2021/04/19 00:41:10;;;;;;;36.58;24.05;;;6.20;99.90;;;5.36;82.37;97730.44;5007158;28;20053;-65
2021/04/19 00:43:38;;;;;;;37.35;24.30;;;6.30;99.90;;;5.51;82.67;97724.16;5008085;28;20054;-66
2021/04/19 00:46:05;;;;;;;36.92;24.65;;;6.40;99.90;;;5.56;81.53;97724.91;5012462;28;20046;-65
2021/04/19 00:48:35;;;;;;;43.00;27.10;;;6.40;99.90;;;5.64;82.51;97723.03;5006006;28;20041;-66
2021/04/19 00:51:07;;;;;;;43.65;25.23;;;6.50;99.90;;;5.57;83.31;97718.91;5010166;28;20033;-65
2021/04/19 00:53:35;;;;;;;44.92;27.02;;;6.50;99.90;;;5.70;82.37;97719.47;5011702;28;20125;-65
2021/04/19 00:56:03;;;;;;;51.22;29.02;;;6.50;99.90;;;5.65;83.09;97717.00;5009280;28;20061;-65
2021/04/19 00:58:34;;;;;;;48.25;30.63;;;6.50;99.90;;;5.60;84.20;97718.81;5012416;28;20069;-66
2021/04/19 01:01:04;;;;;;;51.78;31.70;;;6.50;99.90;;;5.47;84.48;97717.38;5030489;28;20051;-65
2021/04/19 01:03:31;;;;;;;48.63;28.70;;;6.50;99.90;;;5.52;84.61;97720.69;5012984;28;20096;-65
2021/04/19 01:05:58;;;;;;;47.35;28.52;;;6.50;99.90;;;5.64;84.10;97712.75;5011643;28;20462;-65
2021/04/19 01:08:24;;;;;;;43.80;26.38;;;6.50;99.90;;;5.74;83.67;97708.22;5023756;28;20183;-65
2021/04/19 01:10:51;;;;;;;47.60;29.75;;;6.50;99.90;;;5.58;84.22;97711.13;5001981;28;20122;-65
2021/04/19 01:13:17;;;;;;;51.90;31.20;;;6.40;99.90;;;5.49;84.72;97708.72;5003422;28;20050;-65
2021/04/19 01:15:44;;;;;;;44.53;26.60;;;6.50;99.90;;;5.63;83.88;97711.91;5008797;28;20100;-66
2021/04/19 01:18:10;;;;;;;41.83;26.38;;;6.50;99.90;;;5.70;83.64;97704.03;4992941;28;20116;-66
2021/04/19 01:20:43;;;;;;;45.60;28.58;;;6.50;99.90;;;5.67;83.62;97707.50;4995941;28;20133;-65
2021/04/19 01:23:11;;;;;;;34.35;22.08;;;6.60;99.90;;;5.70;82.63;97701.44;5022906;28;20057;-65
2021/04/19 01:25:38;;;;;;;33.38;21.65;;;6.60;99.90;;;5.76;82.29;97702.16;5008786;28;20498;-66
2021/04/19 01:28:05;;;;;;;34.95;24.08;;;6.70;99.90;;;5.69;82.87;97702.34;4992551;28;20052;-65
2021/04/19 01:30:40;;;;;;;35.83;23.50;;;6.70;99.90;;;5.74;82.76;97700.50;5012135;28;20069;-65
2021/04/19 01:33:07;;;;;;;41.42;27.02;;;6.70;99.90;;;5.64;83.81;97705.00;5010053;28;20045;-65
2021/04/19 01:35:35;;;;;;;40.60;26.08;;;6.70;99.90;;;5.77;83.27;97703.88;5012048;28;20080;-66
2021/04/19 01:38:07;;;;;;;36.60;25.23;;;6.60;99.90;;;5.79;82.71;97701.25;5002848;28;20161;-66
2021/04/19 01:40:33;;;;;;;39.00;23.83;;;6.70;99.90;;;5.81;82.44;97696.91;5006102;28;20045;-65
2021/04/19 01:43:01;;;;;;;42.17;27.17;;;6.70;99.90;;;5.89;82.19;97691.63;5009379;28;20137;-65
2021/04/19 01:45:27;;;;;;;43.08;26.17;;;6.70;99.90;;;5.87;82.27;97692.47;5010269;28;20046;-65
2021/04/19 01:47:56;;;;;;;37.92;25.05;;;6.80;99.90;;;5.87;82.24;97692.47;5009865;28;20439;-66
2021/04/19 01:50:27;;;;;;;35.85;25.23;;;6.90;99.90;;;5.88;82.41;97695.91;5006301;28;20525;-66
2021/04/19 01:52:57;;;;;;;43.05;27.40;;;6.90;99.90;;;5.87;82.30;97696.78;5009545;28;20075;-65
2021/04/19 01:55:29;;;;;;;46.47;29.20;;;6.80;99.90;;;5.89;82.85;97689.88;4992777;28;20077;-65
2021/04/19 01:58:08;;;;;;;44.30;28.02;;;6.90;99.90;;;5.82;83.00;97693.47;5007851;28;20038;-65
2021/04/19 02:00:58;;;;;;;47.25;28.23;;;6.80;99.90;;;5.84;83.19;97691.72;5020655;28;20462;-66
2021/04/19 02:03:56;;;;;;;43.78;28.10;;;6.70;99.90;;;5.82;82.79;97693.47;5009088;28;20135;-65
2021/04/19 02:06:55;;;;;;;46.63;29.17;;;6.80;99.90;;;5.87;82.97;97686.50;5008483;28;20060;-65
2021/04/19 02:09:55;;;;;;;39.33;26.77;;;6.80;99.90;;;5.85;82.68;97686.50;4999028;28;20133;-65
2021/04/19 02:12:54;;;;;;;41.35;25.60;;;6.90;99.90;;;5.97;82.16;97689.72;5008109;28;20037;-65
2021/04/19 02:15:59;;;;;;;42.03;26.85;;;6.90;99.90;;;6.07;81.78;97680.94;5009962;28;20057;-65
2021/04/19 02:18:55;;;;;;;39.38;26.67;;;7.00;99.90;;;6.12;82.05;97679.09;5001136;28;20613;-65
2021/04/19 02:21:48;;;;;;;38.40;25.80;;;7.00;99.90;;;5.98;81.96;97679.41;4991437;28;20046;-65
2021/04/19 02:24:22;;;;;;;41.90;27.50;;;7.00;99.90;;;5.88;82.88;97677.88;4990091;28;20061;-65
2021/04/19 02:26:58;;;;;;;44.20;25.30;;;7.00;99.90;;;6.05;81.63;97683.53;5008120;28;20108;-65
2021/04/19 02:29:41;;;;;;;40.70;24.77;;;7.00;99.90;;;6.07;81.53;97679.19;5008719;28;20099;-65
2021/04/19 02:32:20;;;;;;;41.10;24.50;;;7.10;99.90;;;6.11;81.71;97682.53;5007414;28;20045;-65
2021/04/19 02:34:49;;;;;;;42.38;27.73;;;7.10;99.90;;;6.09;81.72;97684.31;5008543;28;20041;-65
2021/04/19 02:37:17;;;;;;;40.63;26.20;;;7.00;99.90;;;6.01;81.94;97684.47;4994932;28;20108;-65
2021/04/19 02:39:47;;;;;;;38.85;26.23;;;7.00;99.90;;;6.06;81.40;97685.22;5006280;28;20049;-65
2021/04/19 02:42:15;;;;;;;51.05;31.67;;;7.00;99.90;;;5.84;83.19;97686.56;5007755;28;20056;-65
2021/04/19 02:44:47;;;;;;;46.20;27.52;;;7.00;99.90;;;5.97;82.84;97675.09;5009231;28;20042;-65
2021/04/19 02:47:15;;;;;;;50.35;32.03;;;7.00;99.90;;;5.85;83.94;97683.09;4997905;28;20046;-65
2021/04/19 02:49:43;;;;;;;39.17;26.08;;;6.90;99.90;;;5.82;82.98;97680.59;5007389;28;20121;-65
2021/04/19 02:52:11;;;;;;;43.88;28.70;;;6.90;99.90;;;6.02;82.80;97680.16;4991864;28;20475;-66
2021/04/19 02:54:41;;;;;;;53.88;31.88;;;6.90;99.90;;;6.07;82.78;97679.19;5008385;28;20475;-65
2021/04/19 02:57:48;;;;;;;46.20;29.77;;;6.90;99.90;;;6.09;82.75;97674.00;4997235;28;20085;-65
2021/04/19 03:00:48;;;;;;;47.42;27.40;;;6.90;99.90;;;6.10;82.96;97674.84;5006671;28;20050;-65
2021/04/19 03:03:39;;;;;;;41.33;26.45;;;7.00;99.90;;;6.21;82.50;97678.03;4979246;28;20325;-66
2021/04/19 03:06:29;;;;;;;37.67;23.55;;;7.00;99.90;;;6.24;81.62;97673.63;5003331;28;20070;-65
2021/04/19 03:09:00;;;;;;;54.25;32.13;;;7.10;99.90;;;5.90;84.42;97675.25;5005814;28;20046;-65
2021/04/19 03:11:36;;;;;;;50.95;32.60;;;7.10;99.90;;;5.71;85.33;97669.69;5007267;28;20112;-65
2021/04/19 03:14:05;;;;;;;54.65;31.73;;;7.10;99.90;;;5.86;84.96;97675.34;5008067;28;20129;-65
2021/04/19 03:16:34;;;;;;;49.78;30.85;;;6.90;99.90;;;5.88;85.43;97675.28;4983341;28;20042;-65
2021/04/19 03:19:04;;;;;;;49.40;29.15;;;6.90;99.90;;;5.94;84.30;97671.75;4991325;28;20050;-65
2021/04/19 03:21:36;;;;;;;50.78;32.08;;;6.90;99.90;;;5.83;85.58;97670.22;5006597;28;20125;-65
2021/04/19 03:24:06;;;;;;;54.95;34.10;;;6.80;99.90;;;5.68;86.86;97669.72;4993627;28;20130;-65
2021/04/19 03:26:34;;;;;;;58.45;34.38;;;6.80;99.90;;;5.79;86.25;97671.22;4974286;28;20062;-65
2021/04/19 03:29:02;;;;;;;47.42;29.33;;;6.80;99.90;;;5.95;85.30;97668.31;5000701;28;20085;-65
2021/04/19 03:31:39;;;;;;;37.78;24.70;;;6.80;99.90;;;6.03;84.28;97669.00;5003601;28;20565;-65
2021/04/19 03:34:23;;;;;;;48.50;29.35;;;6.80;99.90;;;6.19;83.92;97659.16;5004971;28;20513;-65
2021/04/19 03:36:57;;;;;;;42.53;26.05;;;6.90;99.90;;;6.16;83.34;97661.78;5003100;28;20187;-65
2021/04/19 03:39:25;;;;;;;34.90;23.38;;;6.90;99.90;;;6.07;82.99;97657.72;5007323;28;20042;-65
2021/04/19 03:41:55;;;;;;;44.00;26.88;;;7.00;99.90;;;6.16;83.44;97664.38;5004674;28;20483;-65
2021/04/19 03:44:28;;;;;;;39.50;23.63;;;7.00;99.90;;;6.24;82.56;97663.31;4990468;28;20511;-66
2021/04/19 03:46:57;;;;;;;44.40;26.50;;;7.00;99.90;;;6.28;82.54;97652.06;4977025;28;20050;-65
2021/04/19 03:49:32;;;;;;;52.63;32.05;;;7.00;99.90;;;5.86;85.12;97659.88;5004208;28;20478;-65
2021/04/19 03:52:03;;;;;;;62.13;35.47;;;7.00;99.90;;;5.74;85.57;97655.00;4997872;28;20104;-65
2021/04/19 03:54:34;;;;;;;49.58;31.63;;;6.90;99.90;;;5.62;86.05;97656.09;4989654;28;20101;-65
2021/04/19 03:57:07;;;;;;;55.17;33.50;;;6.90;99.90;;;5.72;86.61;97650.75;5007879;28;20034;-65
2021/04/19 03:59:37;;;;;;;45.13;29.60;;;6.90;99.90;;;5.85;85.62;97655.59;5005856;28;20045;-65
2021/04/19 04:02:05;;;;;;;54.00;33.08;;;6.90;99.90;;;5.98;84.92;97652.78;5022372;28;20037;-65
2021/04/19 04:04:33;;;;;;;47.97;31.08;;;6.80;99.90;;;6.00;84.44;97654.44;5007768;28;20049;-65
2021/04/19 04:07:02;;;;;;;58.08;34.13;;;6.80;99.90;;;6.04;84.57;97655.22;4989345;28;20420;-65
2021/04/19 04:09:29;;;;;;;40.10;26.95;;;6.90;99.90;;;5.98;84.24;97658.78;4991746;28;20053;-65
2021/04/19 04:11:56;;;;;;;39.38;26.30;;;6.90;99.90;;;6.01;83.52;97656.13;5002334;28;20050;-65
2021/04/19 04:14:24;;;;;;;36.33;24.63;;;6.90;99.90;;;6.04;83.73;97657.78;4990290;28;20061;-65
2021/04/19 04:16:50;;;;;;;50.67;31.00;;;6.90;99.90;;;6.16;83.74;97656.66;5005478;28;20042;-65
2021/04/19 04:19:17;;;;;;;49.80;31.23;;;6.90;99.90;;;6.04;83.66;97660.34;5007895;28;20069;-65
2021/04/19 04:21:44;;;;;;;51.83;32.20;;;6.90;99.90;;;6.03;83.79;97661.25;5008292;28;20042;-65
2021/04/19 04:24:10;;;;;;;46.60;28.50;;;6.90;99.90;;;6.06;83.71;97662.00;5006860;28;20042;-65
2021/04/19 04:26:37;;;;;;;48.60;29.73;;;6.90;99.90;;;6.04;84.10;97658.66;4996236;28;20054;-65
2021/04/19 04:29:05;;;;;;;39.72;25.55;;;6.90;99.90;;;6.08;83.63;97660.25;5012997;28;20050;-65
2021/04/19 04:31:32;;;;;;;38.13;24.90;;;6.90;99.90;;;6.01;84.58;97661.28;4994226;28;20145;-65
2021/04/19 04:33:58;;;;;;;63.03;34.92;;;6.90;99.90;;;5.92;85.50;97664.03;5011276;28;20057;-65
2021/04/19 04:36:45;;;;;;;80.13;46.88;;;6.90;99.90;;;5.68;87.28;97662.00;5010587;28;20084;-65
2021/04/19 04:39:12;;;;;;;99.03;58.35;;;6.90;99.90;;;5.64;87.41;97656.91;5011703;28;20159;-65
2021/04/19 04:41:39;;;;;;;88.43;51.17;;;6.80;99.90;;;5.62;87.78;97660.41;5010088;28;20096;-65
2021/04/19 04:44:09;;;;;;;74.30;41.60;;;6.80;99.90;;;5.55;88.70;97656.28;5012280;28;20104;-65
2021/04/19 04:47:09;;;;;;;74.50;40.15;;;6.70;99.90;;;5.48;89.33;97659.88;5006977;28;20045;-65
2021/04/19 04:49:59;;;;;;;58.97;35.60;;;6.80;99.90;;;5.56;89.16;97663.94;5006177;28;20065;-66
2021/04/19 04:52:31;;;;;;;46.28;30.38;;;6.70;99.90;;;5.61;88.08;97659.56;5001661;28;20058;-65
2021/04/19 04:54:59;;;;;;;42.17;28.23;;;6.80;99.90;;;5.87;86.53;97660.72;5006804;28;20053;-65
2021/04/19 04:57:28;;;;;;;42.72;27.52;;;6.80;99.90;;;5.94;86.14;97664.00;4999305;28;20045;-65
2021/04/19 04:59:55;;;;;;;61.85;36.03;;;6.80;99.90;;;5.98;86.06;97663.94;5010691;28;20053;-65
2021/04/19 05:02:24;;;;;;;46.58;27.63;;;6.90;99.90;;;6.08;85.84;97665.41;5009620;28;20100;-65
2021/04/19 05:04:53;;;;;;;60.70;33.90;;;7.00;99.90;;;6.03;86.06;97663.84;4992379;28;20046;-65
2021/04/19 05:07:41;;;;;;;40.15;25.88;;;7.10;99.90;;;6.16;85.23;97669.53;5010714;28;20050;-65
2021/04/19 05:10:28;;;;;;;44.72;26.33;;;7.10;99.90;;;6.22;84.59;97666.81;5003730;28;20042;-65
2021/04/19 05:12:55;;;;;;;43.88;28.88;;;7.20;99.90;;;6.26;84.58;97666.72;4990780;28;20046;-65
2021/04/19 05:15:21;;;;;;;43.30;28.77;;;7.20;99.90;;;6.40;84.00;97668.94;4993027;28;20092;-65
2021/04/19 05:17:48;;;;;;;45.78;29.13;;;7.20;99.90;;;6.44;83.77;97664.56;5023945;28;20108;-65
2021/04/19 05:20:16;;;;;;;43.60;28.38;;;7.30;99.90;;;6.47;83.12;97664.50;5011634;28;20515;-65
2021/04/19 05:22:43;;;;;;;43.50;29.80;;;7.40;99.90;;;6.52;83.07;97666.97;5000428;28;20038;-65
2021/04/19 05:25:11;;;;;;;53.20;32.20;;;7.50;99.90;;;6.52;83.40;97670.38;5006067;28;20166;-65
2021/04/19 05:27:38;;;;;;;50.08;32.22;;;7.50;99.90;;;6.53;84.26;97668.66;5011405;28;20050;-65
2021/04/19 05:30:06;;;;;;;52.42;33.47;;;7.60;99.90;;;6.63;83.58;97667.53;5009862;28;20042;-65
2021/04/19 05:32:33;;;;;;;47.65;30.65;;;7.60;99.90;;;6.70;83.10;97663.91;5010710;28;20041;-65
2021/04/19 05:35:01;;;;;;;53.58;33.63;;;7.60;99.90;;;6.72;82.96;97669.88;5007820;28;20053;-65
2021/04/19 05:37:29;;;;;;;42.03;27.33;;;7.70;99.90;;;6.70;83.08;97669.06;5010036;28;20041;-65
2021/04/19 05:39:56;;;;;;;40.95;26.70;;;7.80;99.90;;;6.67;83.22;97676.91;5010832;28;20050;-65
2021/04/19 05:42:23;;;;;;;42.58;27.40;;;7.90;99.90;;;6.76;83.29;97678.41;5022012;28;20060;-65
2021/04/19 05:44:50;;;;;;;38.05;26.50;;;8.00;99.90;;;6.84;82.75;97673.88;5006565;28;20487;-65
2021/04/19 05:47:18;;;;;;;52.50;32.92;;;8.10;99.90;;;6.91;82.58;97680.56;4999057;28;20042;-65
2021/04/19 05:49:45;;;;;;;40.58;27.85;;;8.10;99.90;;;7.04;81.66;97678.50;4991707;28;20057;-65
2021/04/19 05:52:12;;;;;;;41.15;27.42;;;8.10;99.90;;;7.03;81.82;97677.66;4997370;28;20063;-65
2021/04/19 05:54:41;;;;;;;57.92;38.00;;;8.10;99.90;;;7.07;81.90;97676.72;4996411;28;20042;-65
2021/04/19 05:57:33;;;;;;;57.05;36.03;;;8.10;99.90;;;7.14;81.92;97682.56;4989981;28;20061;-65
2021/04/19 06:00:05;;;;;;;44.30;29.98;;;8.10;99.90;;;7.23;82.07;97691.75;4996483;28;20046;-65
2021/04/19 06:03:08;;;;;;;43.20;28.70;;;8.20;99.90;;;7.36;81.40;97693.13;5009477;28;20145;-65
2021/04/19 06:06:23;;;;;;;50.13;33.40;;;8.40;99.90;;;7.24;82.67;97693.47;5009055;28;20285;-65
2021/04/19 06:09:27;;;;;;;45.05;30.55;;;8.40;99.90;;;7.45;81.98;97700.59;5010037;28;20038;-65
2021/04/19 06:12:21;;;;;;;41.03;26.80;;;8.30;99.90;;;7.58;81.33;97698.53;4997899;28;20034;-65
2021/04/19 06:15:05;;;;;;;46.92;30.35;;;8.40;99.90;;;7.64;81.10;97703.53;4993735;28;20049;-65
2021/04/19 06:17:34;;;;;;;39.30;26.15;;;8.50;99.90;;;7.70;80.65;97703.34;5005805;28;20038;-65
2021/04/19 06:20:02;;;;;;;43.05;27.42;;;8.70;99.90;;;7.81;80.04;97703.03;4993241;28;20422;-65
2021/04/19 06:22:29;;;;;;;37.42;25.73;;;8.90;99.90;;;7.81;80.02;97703.03;5000705;28;20097;-65
2021/04/19 06:24:55;;;;;;;37.55;25.52;;;9.10;99.90;;;8.00;79.79;97697.31;4991604;28;20053;-65
2021/04/19 06:27:26;;;;;;;46.22;29.45;;;9.20;99.90;;;8.14;78.78;97692.56;4992236;28;20119;-65
2021/04/19 06:29:54;;;;;;;39.13;25.88;;;9.30;99.90;;;8.08;78.53;97690.19;4992146;28;20046;-65
2021/04/19 06:32:22;;;;;;;42.88;28.15;;;9.40;99.90;;;8.16;77.56;97688.19;4997487;28;20054;-65
2021/04/19 06:34:50;;;;;;;44.42;29.85;;;9.40;99.90;;;8.22;77.64;97688.00;5008148;28;20105;-65
2021/04/19 06:37:18;;;;;;;39.50;26.85;;;9.40;99.90;;;8.29;75.74;97683.47;5007498;28;20141;-65
2021/04/19 06:39:44;;;;;;;37.88;25.85;;;9.50;99.90;;;8.38;76.13;97685.78;5010499;28;20057;-65
2021/04/19 06:42:12;;;;;;;47.17;29.75;;;9.60;99.90;;;8.00;76.84;97692.13;4991096;28;20068;-65
2021/04/19 06:44:39;;;;;;;41.80;27.15;;;9.40;99.90;;;8.11;76.71;97692.66;5002167;28;20054;-65
2021/04/19 06:47:07;;;;;;;39.55;25.77;;;9.40;99.90;;;8.26;75.79;97694.78;4989718;28;20046;-65
2021/04/19 06:49:36;;;;;;;43.50;30.08;;;9.50;99.90;;;8.15;76.88;97692.50;4988945;28;20137;-65
2021/04/19 06:52:03;;;;;;;39.95;26.42;;;9.50;99.90;;;8.14;77.04;97695.13;5007059;28;20042;-65
2021/04/19 06:54:29;;;;;;;35.63;25.45;;;9.50;99.90;;;8.24;76.72;97691.38;4991354;28;20047;-65
2021/04/19 06:56:59;;;;;;;38.83;26.60;;;9.60;99.90;;;8.40;76.27;97693.50;5007871;28;20639;-65
2021/04/19 06:59:27;;;;;;;38.50;25.00;;;9.70;99.90;;;8.56;75.71;97684.38;4993045;28;20041;-65
2021/04/19 07:01:55;;;;;;;36.40;24.10;;;9.80;99.90;;;8.76;75.54;97688.91;5009260;28;20042;-65
2021/04/19 07:04:29;;;;;;;36.47;27.30;;;10.00;99.90;;;8.77;74.36;97699.19;5008927;28;20049;-66
2021/04/19 07:06:58;;;;;;;38.22;24.88;;;10.00;99.90;;;8.75;75.42;97695.78;5023147;28;20038;-65
2021/04/19 07:09:27;;;;;;;41.30;26.63;;;10.20;99.90;;;8.81;75.09;97696.50;4991939;28;20133;-65
2021/04/19 07:11:58;;;;;;;38.53;25.88;;;10.20;99.90;;;8.88;74.69;97695.41;5009256;28;20060;-66
2021/04/19 07:14:28;;;;;;;41.85;28.85;;;10.40;99.90;;;8.64;75.86;97704.81;5007568;28;20161;-65
2021/04/19 07:16:55;;;;;;;43.45;29.27;;;10.30;99.90;;;8.56;75.73;97708.50;5002862;28;20042;-65
2021/04/19 07:19:23;;;;;;;38.67;26.92;;;10.10;99.90;;;8.61;75.39;97697.16;4968744;28;20061;-65
2021/04/19 07:21:51;;;;;;;38.00;26.98;;;10.10;99.90;;;8.72;75.16;97695.06;5008112;28;20038;-65
2021/04/19 07:24:18;;;;;;;36.35;25.90;;;10.20;99.90;;;8.97;74.28;97692.50;5004845;28;20050;-65
2021/04/19 07:26:49;;;;;;;36.95;25.00;;;10.20;99.90;;;9.25;73.86;97691.53;4979356;28;20426;-66
2021/04/19 07:29:16;;;;;;;36.25;25.70;;;10.40;99.90;;;9.54;72.71;97690.50;5008633;28;20042;-66
2021/04/19 07:31:54;;;;;;;37.88;25.77;;;10.60;99.90;;;9.93;72.55;97684.72;4991778;28;20053;-66
2021/04/19 07:34:42;;;;;;;38.88;27.30;;;10.90;99.90;;;10.04;70.47;97679.97;5005286;28;20034;-65
2021/04/19 07:37:15;;;;;;;34.60;24.75;;;11.40;99.90;;;10.14;70.51;97677.84;5008068;28;20094;-65
2021/04/19 07:39:42;;;;;;;41.08;28.75;;;11.70;99.90;;;9.73;70.54;97685.47;4988802;28;20441;-65
2021/04/19 07:42:11;;;;;;;40.38;27.60;;;11.90;99.90;;;10.27;70.01;97679.06;4996065;28;20042;-65
2021/04/19 07:44:43;;;;;;;41.75;30.33;;;12.00;99.90;;;10.52;68.86;97673.75;5009402;28;20042;-66
2021/04/19 07:47:35;;;;;;;37.28;26.30;;;12.00;99.90;;;10.61;69.31;97672.53;5004795;28;20100;-66
2021/04/19 07:50:22;;;;;;;44.70;32.03;;;12.30;99.90;;;10.73;68.87;97681.56;5002398;28;20046;-65
2021/04/19 07:52:57;;;;;;;45.58;32.72;;;12.30;99.90;;;10.39;70.32;97688.13;4999979;28;20065;-66
2021/04/19 07:55:34;;;;;;;41.60;29.80;;;12.10;99.90;;;10.93;69.49;97686.78;5005924;28;20053;-65
2021/04/19 07:58:25;;;;;;;43.30;31.63;;;12.40;99.90;;;10.58;68.51;97681.31;4999957;28;20049;-66
2021/04/19 08:01:02;;;;;;;44.75;32.20;;;12.40;99.90;;;10.67;69.34;97682.66;4989764;28;20517;-66
2021/04/19 08:03:40;;;;;;;45.42;33.63;;;12.40;99.90;;;10.52;69.50;97685.88;5009158;28;20348;-66
2021/04/19 08:06:20;;;;;;;43.65;33.25;;;12.30;99.90;;;10.59;68.02;97684.72;5006979;28;20522;-65
2021/04/19 08:08:47;;;;;;;41.10;29.65;;;12.50;99.90;;;10.64;69.06;97682.78;5008159;28;20056;-65
2021/04/19 08:11:17;;;;;;;42.13;30.70;;;12.70;99.90;;;10.37;69.06;97682.97;5008917;28;20049;-65
2021/04/19 08:13:45;;;;;;;39.85;29.75;;;12.50;99.90;;;10.28;69.19;97685.91;5004234;28;20058;-66
2021/04/19 08:16:26;;;;;;;35.95;26.33;;;12.40;99.90;;;10.19;69.35;97686.28;5010658;28;20523;-65
2021/04/19 08:19:00;;;;;;;34.28;24.73;;;12.00;99.90;;;10.05;70.25;97686.81;5020099;28;20083;-66
2021/04/19 08:21:47;;;;;;;29.52;22.42;;;11.70;99.90;;;9.83;70.39;97689.41;5005017;28;20097;-66
2021/04/19 08:24:17;;;;;;;31.88;24.25;;;11.40;99.90;;;9.58;71.33;97689.47;4994329;28;20074;-65
2021/04/19 08:27:00;;;;;;;36.25;24.58;;;11.20;99.90;;;9.34;72.49;97691.19;5007974;28;20065;-65
2021/04/19 08:29:46;;;;;;;33.20;23.77;;;11.00;99.90;;;9.13;73.55;97693.66;5005964;28;20053;-65
2021/04/19 08:32:19;;;;;;;34.85;25.05;;;10.70;99.90;;;9.09;73.53;97692.06;5007090;28;20060;-65
2021/04/19 08:35:08;;;;;;;37.55;25.73;;;10.50;99.90;;;8.90;74.19;97696.19;5006104;28;20038;-66
2021/04/19 08:37:41;;;;;;;34.38;24.13;;;10.10;99.90;;;8.82;74.37;97696.44;5023763;28;20049;-65
2021/04/19 08:40:08;;;;;;;41.08;27.55;;;10.00;99.90;;;8.75;75.17;97693.19;5005248;28;20112;-66
2021/04/19 08:42:36;;;;;;;39.42;26.55;;;10.00;99.90;;;8.99;75.10;97694.13;4999251;28;20125;-65
2021/04/19 08:45:04;;;;;;;37.10;26.50;;;10.00;99.90;;;8.88;74.85;97692.81;4988094;28;20495;-65
2021/04/19 08:47:31;;;;;;;46.35;30.95;;;10.10;99.90;;;8.78;76.11;97698.28;5003372;28;20042;-66
2021/04/19 08:50:00;;;;;;;48.75;31.05;;;9.90;99.90;;;8.70;76.51;97699.44;5005824;28;20168;-65
2021/04/19 08:52:28;;;;;;;41.85;29.38;;;9.80;99.90;;;8.76;76.32;97704.44;4977508;28;20073;-65
2021/04/19 08:54:55;;;;;;;38.17;28.33;;;9.90;99.90;;;8.64;76.49;97707.41;4995372;28;20073;-65
2021/04/19 08:57:23;;;;;;;43.75;29.85;;;10.00;99.90;;;8.67;77.06;97702.13;4991357;28;20128;-65
2021/04/19 08:59:52;;;;;;;42.20;28.85;;;9.90;99.90;;;8.81;76.85;97709.44;5023137;28;20445;-65
2021/04/19 09:02:22;;;;;;;41.25;28.38;;;10.00;99.90;;;8.70;77.21;97710.63;5006600;28;20116;-65
2021/04/19 09:05:10;;;;;;;50.22;33.38;;;10.00;99.90;;;8.73;77.46;97707.94;4990934;28;20061;-65
2021/04/19 09:07:49;;;;;;;49.15;33.03;;;9.90;99.90;;;8.53;78.75;97713.78;5008399;28;20129;-65
2021/04/19 09:10:20;;;;;;;47.03;32.35;;;9.80;99.90;;;8.65;79.03;97709.09;5024847;28;20057;-65
2021/04/19 09:13:30;;;;;;;51.38;34.08;;;9.80;99.90;;;8.61;78.94;97708.34;4998604;28;20054;-65
2021/04/19 09:16:23;;;;;;;51.65;33.85;;;9.80;99.90;;;8.38;78.57;97711.63;5008043;28;20045;-65
2021/04/19 09:18:53;;;;;;;46.08;31.52;;;9.70;99.90;;;8.65;78.50;97709.94;5007776;28;20208;-65
2021/04/19 09:21:49;;;;;;;50.13;35.17;;;9.80;99.90;;;8.53;78.61;97712.91;5006633;28;20122;-65
2021/04/19 09:24:19;;;;;;;49.22;34.08;;;9.80;99.90;;;8.57;78.39;97706.75;4993572;28;20054;-65
2021/04/19 09:26:53;;;;;;;49.03;33.45;;;9.80;99.90;;;8.51;78.47;97718.16;5011200;28;20157;-65
2021/04/19 09:29:26;;;;;;;42.20;29.65;;;9.70;99.90;;;8.77;77.57;97711.28;5009190;28;20049;-65
2021/04/19 09:32:10;;;;;;;35.38;25.38;;;9.90;99.90;;;8.56;76.66;97723.19;5024096;28;20108;-65
2021/04/19 09:34:49;;;;;;;36.85;25.20;;;9.90;99.90;;;8.49;77.20;97722.53;5009343;28;20056;-65
2021/04/19 09:37:40;;;;;;;40.72;27.88;;;9.90;99.90;;;8.66;77.39;97715.97;5009846;28;20038;-65
2021/04/19 09:40:16;;;;;;;42.40;26.88;;;9.90;99.90;;;8.75;77.10;97716.50;5003142;28;20386;-65
2021/04/19 09:42:55;;;;;;;40.70;29.08;;;10.00;99.90;;;8.52;76.99;97716.41;5005967;28;20049;-65
2021/04/19 09:45:52;;;;;;;44.33;27.38;;;9.90;99.90;;;8.55;76.92;97714.59;5018039;28;20050;-66
2021/04/19 09:48:39;;;;;;;34.40;24.45;;;9.80;99.90;;;8.55;77.02;97719.75;5009976;28;20367;-65
2021/04/19 09:51:13;;;;;;;42.30;28.20;;;9.90;99.90;;;8.54;77.42;97717.22;5010212;28;20042;-65
2021/04/19 09:53:58;;;;;;;40.75;28.23;;;9.80;99.90;;;8.65;77.45;97715.13;5010953;28;20065;-66
2021/04/19 09:56:55;;;;;;;44.53;30.05;;;9.70;99.90;;;8.68;78.56;97719.34;5010796;28;20442;-65
2021/04/19 09:59:24;;;;;;;42.72;29.80;;;9.80;99.90;;;8.80;77.63;97706.00;5005308;28;20104;-65
2021/04/19 10:01:54;;;;;;;37.83;25.63;;;9.90;99.90;;;9.07;76.42;97708.53;5025538;28;20056;-65
2021/04/19 10:04:21;;;;;;;35.60;25.00;;;10.10;99.90;;;9.34;75.38;97712.75;5010862;28;20291;-66
2021/04/19 10:07:08;;;;;;;30.60;21.65;;;10.30;99.90;;;9.71;74.68;97705.41;5009280;28;20081;-65
2021/04/19 10:09:42;;;;;;;29.80;21.75;;;10.80;99.90;;;10.01;73.84;97701.66;5009450;28;20480;-65
2021/04/19 10:12:14;;;;;;;35.08;24.70;;;11.20;99.90;;;10.13;73.56;97705.53;5010478;28;20498;-66
2021/04/19 10:14:41;;;;;;;32.77;23.90;;;11.60;99.90;;;10.31;71.64;97704.00;4992589;28;20502;-65
2021/04/19 10:17:21;;;;;;;33.35;22.92;;;11.90;99.90;;;10.01;71.08;97706.84;5009805;28;20041;-65
2021/04/19 10:19:48;;;;;;;28.88;20.70;;;11.90;99.90;;;10.32;71.97;97710.03;5009327;28;20136;-65
2021/04/19 10:22:17;;;;;;;24.88;18.90;;;11.80;99.90;;;10.24;71.21;97705.97;5009552;28;20042;-65
2021/04/19 10:24:51;;;;;;;26.40;19.88;;;11.70;99.90;;;10.21;70.80;97708.66;5010970;28;20069;-66
2021/04/19 10:27:30;;;;;;;26.83;17.63;;;11.50;99.90;;;10.19;70.80;97702.69;5008236;28;20042;-65
2021/04/19 10:30:17;;;;;;;29.45;20.77;;;11.30;99.90;;;9.95;71.29;97703.66;5024608;28;20046;-65
2021/04/19 10:32:44;;;;;;;28.60;20.73;;;11.20;99.90;;;9.98;71.55;97709.53;5009630;28;20046;-65
2021/04/19 10:35:39;;;;;;;26.10;18.65;;;11.20;99.90;;;10.05;71.97;97715.34;5009802;28;20130;-66
2021/04/19 10:38:15;;;;;;;25.55;18.55;;;11.30;99.90;;;9.77;72.65;97710.38;5010228;28;20045;-66
2021/04/19 10:40:42;;;;;;;27.33;19.23;;;11.40;99.90;;;9.80;72.20;97713.66;5010051;28;20471;-65
2021/04/19 10:43:12;;;;;;;25.35;18.33;;;11.30;99.90;;;9.52;72.57;97713.00;5016515;28;20483;-65
2021/04/19 10:45:41;;;;;;;24.55;18.83;;;11.20;99.90;;;9.44;72.65;97708.09;4997433;28;20050;-65